Time;durP1;ratioP1;P1;durP2;ratioP2;P2;SDS_P1;SDS_P2;PMS_P1;PMS_P2;Temp;Humidity;BMP_temperature;BMP_pressure;BME280_temperature;BME280_humidity;BME280_pressure;Samples;Min_cycle;Max_cycle;Signal;HPM_P1;HPM_P2
2022/03/26 00:01:08;;;;;;;17.48;11.23;;;;;;;8.72;32.03;95782.31;4961452;28;20228;-63
2022/03/26 00:03:35;;;;;;;21.00;11.00;;;;;;;8.79;32.32;95788.75;4960518;28;20216;-63
2022/03/26 00:06:00;;;;;;;23.77;10.95;;;;;;;8.57;32.70;95778.28;4964396;28;20354;-63
2022/03/26 00:08:26;;;;;;;21.25;11.27;;;;;;;8.70;32.42;95789.47;4959911;28;20223;-63
2022/03/26 00:10:51;;;;;;;15.93;11.60;;;;;;;8.67;32.49;95791.50;4961758;28;20212;-63
2022/03/26 00:13:17;;;;;;;22.52;12.30;;;;;;;8.55;32.76;95786.28;4954818;28;20224;-62
2022/03/26 00:15:42;;;;;;;16.58;11.30;;;;;;;8.44;33.23;95791.50;4961950;28;20791;-62
2022/03/26 00:18:08;;;;;;;19.73;12.30;;;;;;;8.34;33.28;95787.88;4954973;28;20260;-62
2022/03/26 00:20:33;;;;;;;23.77;12.65;;;;;;;8.34;33.35;95786.13;4962797;28;20283;-63
2022/03/26 00:22:59;;;;;;;19.25;11.45;;;;;;;8.26;33.35;95788.50;4959363;28;20311;-63
2022/03/26 00:25:24;;;;;;;16.97;11.23;;;;;;;8.37;33.47;95793.75;4960262;28;20228;-62
2022/03/26 00:27:50;;;;;;;18.80;12.25;;;;;;;8.29;33.38;95790.06;4960750;28;20730;-62
2022/03/26 00:30:16;;;;;;;21.05;11.02;;;;;;;8.21;33.48;95787.22;4958095;28;20692;-62
2022/03/26 00:32:41;;;;;;;15.95;11.02;;;;;;;8.15;33.60;95785.88;4954262;28;20247;-62
2022/03/26 00:35:09;;;;;;;18.50;11.95;;;;;;;8.16;33.63;95790.16;4961777;28;20212;-63
2022/03/26 00:37:36;;;;;;;19.20;12.13;;;;;;;8.22;33.79;95789.69;4955144;28;20204;-62
2022/03/26 00:40:02;;;;;;;24.52;13.02;;;;;;;8.24;33.95;95787.78;4962621;28;20754;-62
2022/03/26 00:42:28;;;;;;;21.58;12.75;;;;;;;8.15;33.94;95794.59;4966541;28;20225;-62
2022/03/26 00:44:53;;;;;;;19.43;13.07;;;;;;;8.08;33.95;95797.78;4963069;28;20753;-62
2022/03/26 00:47:19;;;;;;;26.75;12.77;;;;;;;7.79;34.25;95792.97;4985896;28;20593;-62
2022/03/26 00:49:44;;;;;;;23.10;12.65;;;;;;;7.97;34.16;95801.22;4987309;28;20570;-62
2022/03/26 00:52:09;;;;;;;24.58;12.98;;;;;;;8.13;34.52;95804.34;4961998;28;20235;-62
2022/03/26 00:54:35;;;;;;;21.35;11.90;;;;;;;8.30;33.97;95807.44;4955770;28;20253;-63
2022/03/26 00:57:00;;;;;;;15.10;11.68;;;;;;;8.21;33.40;95798.50;4961948;28;20673;-62
2022/03/26 00:59:26;;;;;;;24.90;12.18;;;;;;;8.20;33.28;95802.06;4963253;28;20243;-63
2022/03/26 01:01:52;;;;;;;21.90;11.90;;;;;;;8.29;33.06;95796.13;4962474;28;20282;-63
2022/03/26 01:04:18;;;;;;;16.55;12.25;;;;;;;8.30;33.14;95802.19;4960608;28;20228;-63
2022/03/26 01:06:44;;;;;;;20.75;11.65;;;;;;;8.11;33.69;95801.00;4962028;28;20774;-63
2022/03/26 01:09:09;;;;;;;19.25;12.50;;;;;;;7.80;34.17;95815.56;4953521;28;20240;-63
2022/03/26 01:11:35;;;;;;;24.52;12.55;;;;;;;7.89;33.94;95806.22;4961496;28;20228;-63
2022/03/26 01:14:00;;;;;;;19.15;11.63;;;;;;;7.77;34.51;95810.56;4962229;28;20220;-62
2022/03/26 01:16:27;;;;;;;22.63;11.88;;;;;;;7.71;34.85;95818.88;4990354;28;20294;-63
2022/03/26 01:18:53;;;;;;;23.60;12.27;;;;;;;7.62;34.99;95814.34;4965637;28;20260;-63
2022/03/26 01:21:19;;;;;;;22.35;11.88;;;;;;;7.52;35.45;95811.56;4960552;28;20317;-62
2022/03/26 01:23:49;;;;;;;20.15;11.75;;;;;;;7.71;34.97;95827.56;4957408;28;20735;-63
2022/03/26 01:26:16;;;;;;;22.38;13.10;;;;;;;7.56;35.43;95831.31;4957325;28;20201;-63
2022/03/26 01:28:42;;;;;;;26.98;12.75;;;;;;;7.21;36.03;95823.44;4963315;28;20212;-63
2022/03/26 01:31:07;;;;;;;16.92;12.43;;;;;;;7.25;35.92;95825.72;4961415;28;20240;-63
2022/03/26 01:33:33;;;;;;;22.13;13.33;;;;;;;7.19;36.56;95833.16;4964957;28;20224;-63
2022/03/26 01:35:58;;;;;;;17.23;11.70;;;;;;;7.18;36.71;95821.88;4966789;28;20252;-63
2022/03/26 01:38:24;;;;;;;19.65;12.80;;;;;;;7.01;36.84;95830.94;4953727;28;20229;-62
2022/03/26 01:40:49;;;;;;;20.17;12.87;;;;;;;6.89;37.01;95829.19;4950220;28;20219;-63
2022/03/26 01:43:15;;;;;;;22.60;12.88;;;;;;;6.93;37.40;95830.66;4960875;28;20356;-63
2022/03/26 01:45:40;;;;;;;26.52;14.30;;;;;;;7.15;36.88;95835.19;4952980;28;20239;-63
2022/03/26 01:48:06;;;;;;;23.00;13.77;;;;;;;7.09;37.38;95830.41;4962701;28;20367;-63
2022/03/26 01:50:32;;;;;;;19.73;13.33;;;;;;;7.09;37.13;95832.19;4962262;28;20232;-63
2022/03/26 01:52:58;;;;;;;25.93;14.93;;;;;;;6.99;37.11;95832.00;4964955;28;20216;-63
2022/03/26 01:55:25;;;;;;;26.13;14.30;;;;;;;7.02;37.21;95834.41;4961715;28;20227;-63
2022/03/26 01:57:51;;;;;;;19.53;13.97;;;;;;;6.94;37.95;95832.31;4961039;28;20228;-63
2022/03/26 02:00:17;;;;;;;22.50;14.23;;;;;;;6.93;37.51;95843.72;4962417;28;20231;-63
2022/03/26 02:02:43;;;;;;;26.67;13.50;;;;;;;6.83;37.44;95840.94;4961168;28;20212;-63
2022/03/26 02:05:18;;;;;;;22.70;12.60;;;;;;;6.60;38.00;95834.72;4960754;28;20222;-63
2022/03/26 02:07:46;;;;;;;21.27;12.93;;;;;;;6.80;37.79;95850.78;4960760;28;20207;-63
2022/03/26 02:10:14;;;;;;;29.47;13.73;;;;;;;6.56;38.50;95835.88;4962790;28;20256;-63
2022/03/26 02:12:40;;;;;;;27.87;14.93;;;;;;;6.60;38.30;95841.69;4956096;28;20229;-63
2022/03/26 02:15:06;;;;;;;26.93;14.73;;;;;;;6.54;38.62;95842.97;4958321;28;20512;-63
2022/03/26 02:17:33;;;;;;;25.93;14.63;;;;;;;6.70;38.34;95847.97;4958108;28;20306;-63
2022/03/26 02:20:01;;;;;;;25.50;13.53;;;;;;;6.59;38.37;95850.50;4961219;28;20220;-63
2022/03/26 02:22:28;;;;;;;28.48;14.57;;;;;;;6.59;38.37;95848.72;4957572;28;20239;-63
2022/03/26 02:24:55;;;;;;;22.07;14.57;;;;;;;6.71;38.25;95843.56;4969545;28;20236;-63
2022/03/26 02:27:21;;;;;;;23.23;14.03;;;;;;;6.51;38.66;95848.41;4967997;28;20221;-63
2022/03/26 02:29:47;;;;;;;30.13;13.67;;;;;;;6.37;38.81;95845.94;4965132;28;20224;-63
2022/03/26 02:32:12;;;;;;;27.03;13.30;;;;;;;6.68;38.46;95849.00;4958264;28;20215;-63
2022/03/26 02:34:38;;;;;;;29.00;14.80;;;;;;;6.42;38.93;95845.63;4966516;28;20212;-63
2022/03/26 02:37:04;;;;;;;29.33;14.57;;;;;;;6.26;39.73;95853.69;4965284;28;20228;-63
2022/03/26 02:39:29;;;;;;;25.57;16.07;;;;;;;6.34;39.32;95846.97;4979952;28;20247;-63
2022/03/26 02:41:55;;;;;;;25.47;14.70;;;;;;;6.31;39.35;95852.41;4959406;28;20235;-62
2022/03/26 02:44:21;;;;;;;23.93;14.37;;;;;;;6.21;39.46;95851.38;4999289;28;20287;-63
2022/03/26 02:46:46;;;;;;;25.80;14.23;;;;;;;6.03;39.72;95848.22;4968682;28;20208;-63
2022/03/26 02:49:13;;;;;;;22.27;13.60;;;;;;;6.00;39.92;95855.44;4964911;28;20236;-63
2022/03/26 02:51:39;;;;;;;27.63;14.13;;;;;;;5.88;40.27;95857.91;4961428;28;20220;-63
2022/03/26 02:54:05;;;;;;;21.33;13.40;;;;;;;5.86;40.16;95862.38;4962339;28;20240;-63
2022/03/26 02:56:31;;;;;;;26.93;13.37;;;;;;;5.90;40.32;95863.00;4963290;28;20239;-63
2022/03/26 02:58:57;;;;;;;29.30;13.87;;;;;;;6.03;39.84;95863.88;4961377;28;20228;-63
2022/03/26 03:01:23;;;;;;;25.77;12.57;;;;;;;5.91;40.11;95864.69;4966882;28;20308;-63
2022/03/26 03:03:50;;;;;;;24.33;13.70;;;;;;;5.73;40.46;95864.97;4966393;28;20279;-63
2022/03/26 03:06:15;;;;;;;19.40;12.43;;;;;;;5.76;40.33;95858.69;4976089;28;20271;-63
2022/03/26 03:08:41;;;;;;;26.87;13.77;;;;;;;5.81;40.19;95863.63;4964468;28;20228;-63
2022/03/26 03:11:08;;;;;;;23.60;14.03;;;;;;;5.99;40.56;95869.41;4960592;28;20224;-63
2022/03/26 03:13:34;;;;;;;21.33;14.50;;;;;;;6.07;39.89;95865.38;4964020;28;20212;-63
2022/03/26 03:16:00;;;;;;;23.37;13.33;;;;;;;6.05;40.28;95864.63;4964537;28;20224;-63
2022/03/26 03:18:25;;;;;;;21.27;12.17;;;;;;;5.81;40.27;95866.25;4966108;28;20229;-63
2022/03/26 03:20:51;;;;;;;17.90;11.27;;;;;;;5.74;40.47;95871.00;4965714;28;20235;-63
2022/03/26 03:23:17;;;;;;;20.50;12.50;;;;;;;5.87;40.15;95873.66;4959963;28;20331;-62
2022/03/26 03:25:42;;;;;;;20.53;11.53;;;;;;;5.94;39.71;95870.56;4966856;28;20298;-63
2022/03/26 03:28:08;;;;;;;20.33;12.60;;;;;;;5.93;39.87;95866.28;4965838;28;20337;-62
2022/03/26 03:30:34;;;;;;;21.20;12.77;;;;;;;6.03;39.45;95871.72;4965111;28;20263;-62
2022/03/26 03:32:59;;;;;;;21.50;11.67;;;;;;;5.84;39.15;95868.63;4964455;28;20224;-63
2022/03/26 03:35:25;;;;;;;16.97;11.67;;;;;;;5.57;39.51;95873.91;4960363;28;20325;-63
2022/03/26 03:37:51;;;;;;;13.97;9.83;;;;;;;5.55;39.52;95878.38;4958778;28;20223;-63
2022/03/26 03:40:17;;;;;;;19.53;11.17;;;;;;;5.64;39.69;95870.81;4965508;28;20232;-63
2022/03/26 03:42:44;;;;;;;24.13;11.90;;;;;;;5.57;39.74;95873.91;4967116;28;20224;-63
2022/03/26 03:45:10;;;;;;;19.43;11.33;;;;;;;5.39;39.89;95870.72;4960132;28;20232;-62
2022/03/26 03:47:37;;;;;;;17.30;11.73;;;;;;;5.29;40.75;95867.84;4960059;28;20220;-63
2022/03/26 03:50:04;;;;;;;20.07;12.13;;;;;;;5.36;41.12;95876.97;4963825;28;20219;-63
2022/03/26 03:52:30;;;;;;;20.10;11.80;;;;;;;5.47;40.73;95871.06;4990517;28;20215;-63
2022/03/26 03:54:55;;;;;;;17.17;11.53;;;;;;;5.43;39.96;95872.19;4976380;28;20229;-63
2022/03/26 03:57:21;;;;;;;16.67;11.77;;;;;;;5.29;40.68;95871.31;4956199;28;20485;-62
2022/03/26 03:59:46;;;;;;;17.43;10.87;;;;;;;5.18;40.94;95872.91;4964261;28;20239;-63
2022/03/26 04:02:12;;;;;;;19.77;11.77;;;;;;;5.19;41.04;95877.22;4955759;28;20521;-63
2022/03/26 04:04:39;;;;;;;19.23;11.73;;;;;;;5.19;40.86;95878.06;4966277;28;20217;-62
2022/03/26 04:07:05;;;;;;;24.30;12.00;;;;;;;5.24;41.16;95873.38;4995387;28;20224;-63
2022/03/26 04:09:30;;;;;;;23.17;12.33;;;;;;;5.22;41.35;95885.66;4966545;28;20232;-63
2022/03/26 04:11:56;;;;;;;19.20;11.13;;;;;;;5.22;40.96;95883.06;4964678;28;20235;-62
2022/03/26 04:14:21;;;;;;;17.53;11.00;;;;;;;5.16;41.37;95891.28;4964323;28;20224;-63
2022/03/26 04:16:47;;;;;;;19.40;11.60;;;;;;;4.98;41.88;95889.84;4960024;28;20247;-63
2022/03/26 04:19:13;;;;;;;17.73;11.17;;;;;;;4.97;41.88;95896.81;4983389;28;20255;-63
2022/03/26 04:21:38;;;;;;;22.20;11.67;;;;;;;4.92;41.79;95898.00;4954955;28;20302;-62
2022/03/26 04:24:04;;;;;;;18.50;11.80;;;;;;;4.89;42.38;95899.03;4952673;28;20237;-63
2022/03/26 04:26:30;;;;;;;18.67;11.97;;;;;;;4.82;42.92;95898.59;4954577;28;20227;-63
2022/03/26 04:28:55;;;;;;;19.40;12.37;;;;;;;4.97;42.70;95896.81;4964438;28;20240;-63
2022/03/26 04:31:21;;;;;;;18.70;12.67;;;;;;;4.92;42.44;95911.91;4966141;28;20229;-63
2022/03/26 04:33:46;;;;;;;18.17;11.60;;;;;;;4.76;42.70;95913.78;4962729;28;20232;-63
2022/03/26 04:36:12;;;;;;;14.87;11.30;;;;;;;4.46;43.06;95912.09;4961953;28;20236;-63
2022/03/26 04:38:38;;;;;;;16.77;11.67;;;;;;;4.49;42.84;95911.06;4958396;28;20256;-62
2022/03/26 04:41:03;;;;;;;20.10;11.70;;;;;;;4.88;42.20;95918.22;4962247;28;20260;-63
2022/03/26 04:43:29;;;;;;;27.43;12.97;;;;;;;4.82;42.41;95909.03;4956080;28;20196;-62
2022/03/26 04:45:54;;;;;;;20.13;11.93;;;;;;;4.81;42.49;95916.94;4994712;28;20294;-63
2022/03/26 04:48:20;;;;;;;25.53;13.13;;;;;;;4.76;42.81;95914.63;4966901;28;20228;-62
2022/03/26 04:50:45;;;;;;;21.90;12.47;;;;;;;4.77;43.04;95920.66;4966919;28;20230;-62
2022/03/26 04:53:11;;;;;;;19.73;11.80;;;;;;;4.79;42.66;95924.03;4960739;28;20215;-62
2022/03/26 04:55:37;;;;;;;18.50;12.00;;;;;;;4.81;42.39;95920.41;4954815;28;20217;-62
2022/03/26 04:58:02;;;;;;;18.63;11.90;;;;;;;4.86;42.31;95926.16;4961696;28;20239;-63
2022/03/26 05:00:28;;;;;;;18.83;11.90;;;;;;;4.86;42.40;95930.50;4961840;28;20236;-62
2022/03/26 05:02:55;;;;;;;16.43;11.90;;;;;;;4.81;42.56;95933.41;4963902;28;20238;-61
2022/03/26 05:05:20;;;;;;;22.57;12.80;;;;;;;4.73;42.59;95933.06;4965042;28;20220;-62
2022/03/26 05:07:46;;;;;;;22.03;13.30;;;;;;;4.75;42.37;95936.38;4965325;28;20208;-62
2022/03/26 05:10:15;;;;;;;19.73;14.03;;;;;;;4.82;42.42;95934.25;4961006;28;20225;-63
2022/03/26 05:12:42;;;;;;;19.03;13.20;;;;;;;4.89;42.43;95932.09;4954919;28;20262;-62
2022/03/26 05:15:08;;;;;;;23.20;13.63;;;;;;;4.92;42.36;95935.38;4958832;28;20237;-63
2022/03/26 05:17:35;;;;;;;22.67;13.70;;;;;;;4.86;42.29;95933.97;4988887;28;20216;-63
2022/03/26 05:20:00;;;;;;;24.10;15.33;;;;;;;4.90;42.25;95934.63;4960414;28;20218;-63
2022/03/26 05:22:26;;;;;;;21.73;15.03;;;;;;;5.08;41.88;95941.28;4980756;28;20475;-62
2022/03/26 05:24:53;;;;;;;22.10;15.43;;;;;;;5.17;41.47;95942.50;4959974;28;20228;-63
2022/03/26 05:27:18;;;;;;;25.03;16.33;;;;;;;5.20;41.66;95941.47;4960724;28;20232;-63
2022/03/26 05:29:46;;;;;;;22.20;15.13;;;;;;;5.15;41.77;95928.69;4952332;28;20221;-63
2022/03/26 05:32:12;;;;;;;23.13;14.10;;;;;;;5.47;41.13;95944.09;4956635;28;20216;-63
2022/03/26 05:34:37;;;;;;;20.47;15.13;;;;;;;5.44;40.76;95946.91;4958844;28;20216;-63
2022/03/26 05:37:04;;;;;;;24.27;15.17;;;;;;;5.13;41.42;95938.38;4967678;28;20228;-63
2022/03/26 05:39:30;;;;;;;19.40;13.80;;;;;;;5.38;41.13;95942.91;4962026;28;20220;-63
2022/03/26 05:41:56;;;;;;;20.63;14.03;;;;;;;5.41;40.60;95947.09;4960800;28;20228;-62
2022/03/26 05:44:21;;;;;;;22.97;14.43;;;;;;;5.48;40.80;95953.56;4959078;28;20257;-63
2022/03/26 05:46:47;;;;;;;19.33;13.90;;;;;;;5.64;40.61;95951.69;4960419;28;20216;-63
2022/03/26 05:49:12;;;;;;;25.37;14.23;;;;;;;5.89;40.18;95956.13;4987567;28;20258;-63
2022/03/26 05:51:38;;;;;;;21.33;14.90;;;;;;;5.88;39.74;95958.84;4959836;28;20230;-62
2022/03/26 05:54:05;;;;;;;27.17;14.00;;;;;;;5.98;39.82;95962.56;4990681;28;20231;-64
2022/03/26 05:56:36;;;;;;;19.00;13.90;;;;;;;5.71;39.88;95960.78;4964810;28;20299;-63
2022/03/26 05:59:03;;;;;;;18.23;14.17;;;;;;;5.75;39.87;95956.22;4964070;28;20218;-62
2022/03/26 06:01:28;;;;;;;19.97;14.00;;;;;;;5.99;39.46;95959.03;4958077;28;20208;-62
2022/03/26 06:03:54;;;;;;;17.30;13.93;;;;;;;6.00;39.55;95957.25;4991985;28;20235;-62
2022/03/26 06:06:19;;;;;;;25.37;15.30;;;;;;;6.05;39.70;95963.84;4964587;28;20286;-62
2022/03/26 06:08:46;;;;;;;26.67;15.07;;;;;;;6.13;39.29;95958.94;4964354;28;20220;-62
2022/03/26 06:11:11;;;;;;;18.97;14.00;;;;;;;6.22;38.88;95967.09;4965852;28;20212;-62
2022/03/26 06:13:36;;;;;;;20.80;13.67;;;;;;;6.30;38.84;95957.81;4968896;28;20213;-62
2022/03/26 06:16:02;;;;;;;21.67;14.30;;;;;;;6.35;38.73;95976.63;4970342;28;20228;-62
2022/03/26 06:18:27;;;;;;;25.87;15.10;;;;;;;6.45;38.37;95968.19;4964943;28;20233;-62
2022/03/26 06:20:53;;;;;;;21.57;14.73;;;;;;;6.47;38.24;95967.16;4959699;28;20229;-63
2022/03/26 06:23:18;;;;;;;17.87;14.20;;;;;;;6.48;38.27;95968.81;4959010;28;20240;-63
2022/03/26 06:25:44;;;;;;;21.67;14.97;;;;;;;6.53;37.97;95969.34;4990957;28;20208;-63
2022/03/26 06:28:09;;;;;;;21.10;15.13;;;;;;;6.56;38.28;95966.53;4956500;28;20240;-63
2022/03/26 06:30:35;;;;;;;22.50;15.27;;;;;;;6.55;37.91;95971.88;4961750;28;20327;-63
2022/03/26 06:33:01;;;;;;;20.37;14.43;;;;;;;6.52;37.91;95967.69;4996208;28;20220;-64
2022/03/26 06:35:27;;;;;;;23.23;15.67;;;;;;;6.75;37.33;95975.72;4967801;28;20283;-63
2022/03/26 06:37:53;;;;;;;21.10;16.00;;;;;;;6.73;37.21;95974.97;4959905;28;20204;-62
2022/03/26 06:40:19;;;;;;;23.27;15.40;;;;;;;6.60;37.89;95988.91;4963193;28;20221;-64
2022/03/26 06:42:44;;;;;;;20.20;16.33;;;;;;;6.66;37.93;95978.97;4954080;28;20240;-63
2022/03/26 06:45:10;;;;;;;24.70;15.37;;;;;;;6.85;37.51;95976.78;4961221;28;20224;-63
2022/03/26 06:47:35;;;;;;;26.10;16.70;;;;;;;7.12;37.32;95986.28;4957772;28;20755;-63
2022/03/26 06:50:01;;;;;;;26.13;16.63;;;;;;;7.31;37.09;95980.59;4963084;28;20204;-64
2022/03/26 06:52:26;;;;;;;23.10;16.37;;;;;;;7.45;36.71;95983.88;4993854;28;20270;-63
2022/03/26 06:54:52;;;;;;;21.77;16.50;;;;;;;7.36;36.60;95986.34;4963785;28;20314;-64
2022/03/26 06:57:18;;;;;;;27.10;16.57;;;;;;;7.53;36.29;95995.59;4955910;28;20239;-63
2022/03/26 06:59:43;;;;;;;23.75;16.83;;;;;;;7.58;36.40;95990.88;4961990;28;20221;-66
2022/03/26 07:02:08;;;;;;;21.13;16.07;;;;;;;7.71;35.97;95989.03;4963415;28;20215;-63
2022/03/26 07:04:34;;;;;;;22.98;15.85;;;;;;;7.64;36.19;95987.81;4964146;28;20200;-63
2022/03/26 07:07:00;;;;;;;27.30;17.67;;;;;;;7.69;35.52;95997.00;4979813;28;20228;-64
2022/03/26 07:09:25;;;;;;;27.15;16.17;;;;;;;7.60;36.01;95992.44;4968878;28;20239;-64
2022/03/26 07:11:51;;;;;;;34.10;17.20;;;;;;;7.79;36.02;95996.34;4966752;28;20227;-63
2022/03/26 07:14:17;;;;;;;23.30;15.70;;;;;;;7.88;35.99;95999.13;4957857;28;20231;-63
2022/03/26 07:16:43;;;;;;;18.93;16.10;;;;;;;8.03;35.52;96004.22;4956732;28;20674;-63
2022/03/26 07:19:09;;;;;;;22.20;16.57;;;;;;;8.10;35.26;96002.78;4963555;28;20307;-62
2022/03/26 07:21:36;;;;;;;23.20;15.80;;;;;;;8.05;34.74;96010.19;4958774;28;20654;-63
2022/03/26 07:24:02;;;;;;;23.55;16.42;;;;;;;7.97;34.92;96008.13;4965382;28;20246;-63
2022/03/26 07:26:27;;;;;;;22.47;15.70;;;;;;;8.15;34.93;95998.06;4957550;28;20291;-62
2022/03/26 07:28:56;;;;;;;20.48;15.82;;;;;;;8.14;35.04;95999.03;4987373;28;20302;-62
2022/03/26 07:31:22;;;;;;;24.55;15.90;;;;;;;8.33;34.42;96001.94;4956418;28;20626;-62
2022/03/26 07:33:48;;;;;;;22.47;16.90;;;;;;;8.23;34.53;96005.34;4969485;28;20736;-62
2022/03/26 07:36:13;;;;;;;26.63;16.30;;;;;;;8.35;34.62;96007.09;4963208;28;20217;-63
2022/03/26 07:38:39;;;;;;;23.05;16.88;;;;;;;8.59;34.16;96007.06;4962420;28;20235;-62
2022/03/26 07:41:04;;;;;;;29.23;16.70;;;;;;;8.55;34.10;96008.22;4962799;28;20205;-66
2022/03/26 07:43:30;;;;;;;25.90;17.45;;;;;;;8.86;34.15;96001.53;4963548;28;20208;-63
2022/03/26 07:45:55;;;;;;;25.80;16.30;;;;;;;8.96;33.66;96009.53;4954214;28;20334;-64
2022/03/26 07:48:21;;;;;;;19.90;15.07;;;;;;;9.04;33.32;96000.13;4957113;28;20225;-64
2022/03/26 07:50:46;;;;;;;21.35;15.27;;;;;;;9.15;32.78;95999.28;4957269;28;20278;-64
2022/03/26 07:53:12;;;;;;;22.92;15.95;;;;;;;9.18;32.45;96006.91;4958864;28;20209;-64
2022/03/26 07:55:38;;;;;;;18.48;15.48;;;;;;;9.28;32.37;96004.41;4958625;28;20274;-63
2022/03/26 07:58:03;;;;;;;21.75;15.13;;;;;;;9.25;32.57;96002.88;4964779;28;20231;-62
2022/03/26 08:00:29;;;;;;;22.95;15.60;;;;;;;9.19;32.25;95998.06;4966216;28;20224;-63
2022/03/26 08:02:55;;;;;;;18.95;14.63;;;;;;;9.27;31.98;95998.34;4961414;28;20260;-63
2022/03/26 08:05:21;;;;;;;21.67;15.52;;;;;;;9.43;31.99;96003.19;4953174;28;20229;-64
2022/03/26 08:07:46;;;;;;;19.92;15.30;;;;;;;9.54;31.44;95999.72;4963225;28;20206;-64
2022/03/26 08:10:12;;;;;;;21.98;14.90;;;;;;;9.55;31.08;96001.41;4963092;28;20227;-63
2022/03/26 08:12:38;;;;;;;20.75;15.25;;;;;;;9.64;31.35;95995.41;4957111;28;20237;-66
2022/03/26 08:15:04;;;;;;;19.38;15.85;;;;;;;9.76;31.60;95998.88;4957085;28;20307;-66
2022/03/26 08:17:30;;;;;;;20.90;14.75;;;;;;;9.90;31.51;96000.41;4958649;28;20228;-66
2022/03/26 08:19:56;;;;;;;25.80;15.15;;;;;;;10.05;31.18;95999.16;4958915;28;20223;-66
2022/03/26 08:22:21;;;;;;;19.85;14.07;;;;;;;10.10;30.23;95996.13;4957199;28;20274;-62
2022/03/26 08:24:47;;;;;;;19.25;12.55;;;;;;;10.12;29.44;95994.22;4960619;28;20478;-65
2022/03/26 08:27:12;;;;;;;17.80;13.93;;;;;;;10.21;29.32;95998.75;4955972;28;20216;-64
2022/03/26 08:29:38;;;;;;;18.30;14.55;;;;;;;10.31;29.14;95993.59;4962769;28;20224;-65
2022/03/26 08:32:05;;;;;;;19.75;14.05;;;;;;;10.29;29.49;95996.34;4960760;28;20213;-65
2022/03/26 08:34:31;;;;;;;17.38;13.45;;;;;;;10.32;30.08;95995.28;4967944;28;20223;-67
2022/03/26 08:36:57;;;;;;;23.38;13.48;;;;;;;10.52;29.60;95986.56;4961344;28;20263;-66
2022/03/26 08:39:22;;;;;;;14.30;11.68;;;;;;;10.59;28.23;95985.09;4961159;28;20220;-66
2022/03/26 08:41:48;;;;;;;15.70;12.25;;;;;;;10.66;27.33;95981.94;4961714;28;20320;-65
2022/03/26 08:44:14;;;;;;;14.68;11.43;;;;;;;10.63;27.59;95976.94;4955525;28;20200;-63
2022/03/26 08:46:39;;;;;;;16.17;13.18;;;;;;;10.82;27.99;95977.06;4954253;28;20208;-63
2022/03/26 08:49:05;;;;;;;18.67;13.15;;;;;;;10.86;27.72;95978.47;4955971;28;20220;-68
2022/03/26 08:51:30;;;;;;;15.80;12.38;;;;;;;11.01;27.07;95971.06;4962558;28;20227;-69
2022/03/26 08:53:56;;;;;;;17.90;11.93;;;;;;;11.03;27.34;95969.97;4957796;28;20708;-65
2022/03/26 08:56:21;;;;;;;15.68;10.73;;;;;;;11.06;26.40;95963.59;4961495;28;20267;-70
2022/03/26 08:58:47;;;;;;;15.85;11.48;;;;;;;11.29;25.67;95964.25;4955731;28;20215;-65
2022/03/26 09:01:12;;;;;;;16.23;11.52;;;;;;;11.29;25.48;95966.91;4953755;28;20217;-64
2022/03/26 09:03:40;;;;;;;16.17;10.90;;;;;;;11.40;25.20;95963.34;4961880;28;20247;-63
2022/03/26 09:06:07;;;;;;;16.00;10.52;;;;;;;11.42;25.15;95956.13;4966120;28;20733;-64
2022/03/26 09:08:33;;;;;;;13.75;11.30;;;;;;;11.57;25.30;95959.22;4963353;28;20216;-62
2022/03/26 09:10:59;;;;;;;14.05;11.20;;;;;;;11.56;25.09;95949.66;4965492;28;20197;-63
2022/03/26 09:13:25;;;;;;;14.55;11.20;;;;;;;11.69;25.04;95952.88;4964268;28;20204;-68
2022/03/26 09:15:50;;;;;;;16.83;10.50;;;;;;;11.82;24.55;95950.81;4956960;28;20224;-68
2022/03/26 09:18:16;;;;;;;13.20;11.30;;;;;;;11.88;24.35;95949.47;4958860;28;20231;-64
2022/03/26 09:20:41;;;;;;;15.00;11.88;;;;;;;12.11;24.46;95952.69;4959521;28;20311;-70
2022/03/26 09:23:07;;;;;;;14.40;11.93;;;;;;;12.17;24.92;95951.31;4963653;28;20244;-64
2022/03/26 09:25:34;;;;;;;13.65;12.05;;;;;;;12.26;24.84;95947.81;4994065;28;20231;-71
2022/03/26 09:27:59;;;;;;;17.13;11.90;;;;;;;12.32;24.41;95939.34;4963138;28;20268;-69
2022/03/26 09:30:25;;;;;;;16.35;12.93;;;;;;;12.46;24.86;95938.09;4961804;28;20232;-66
2022/03/26 09:32:50;;;;;;;14.68;13.02;;;;;;;12.44;24.59;95934.78;4962310;28;20286;-68
2022/03/26 09:35:16;;;;;;;16.98;13.15;;;;;;;12.70;24.90;95925.28;4956643;28;20248;-68
2022/03/26 09:37:43;;;;;;;15.88;13.23;;;;;;;12.84;24.81;95928.44;4964863;28;20213;-66
2022/03/26 09:40:10;;;;;;;15.10;13.00;;;;;;;13.17;24.16;95927.06;4968770;28;20228;-65
2022/03/26 09:42:37;;;;;;;17.15;12.00;;;;;;;13.29;24.32;95927.75;4967478;28;20232;-64
2022/03/26 09:45:06;;;;;;;12.73;10.88;;;;;;;13.16;24.62;95926.25;4957825;28;20224;-63
2022/03/26 09:47:32;;;;;;;16.67;11.35;;;;;;;13.15;24.72;95919.31;4955652;28;20236;-65
2022/03/26 09:49:58;;;;;;;14.05;10.32;;;;;;;13.29;24.61;95925.94;4951381;28;20219;-64
2022/03/26 09:52:24;;;;;;;12.82;10.80;;;;;;;13.34;25.07;95914.91;4957775;28;20204;-64
2022/03/26 09:54:50;;;;;;;16.92;9.88;;;;;;;13.45;24.88;95909.47;4954819;28;20326;-63
2022/03/26 09:57:15;;;;;;;20.20;11.27;;;;;;;13.52;24.53;95902.59;4952906;28;20278;-64
2022/03/26 09:59:41;;;;;;;13.25;10.15;;;;;;;13.79;25.35;95911.47;4958542;28;20673;-63
2022/03/26 10:02:07;;;;;;;13.18;10.98;;;;;;;13.83;24.65;95904.91;4956282;28;20200;-66
2022/03/26 10:04:40;;;;;;;19.92;11.15;;;;;;;13.87;24.47;95915.03;4956086;28;20200;-65
2022/03/26 10:07:07;;;;;;;13.05;11.73;;;;;;;14.02;24.47;95917.97;4993893;28;20395;-65
2022/03/26 10:09:42;;;;;;;14.50;12.13;;;;;;;13.97;23.96;95903.56;4958391;28;20319;-65
2022/03/26 10:12:29;;;;;;;15.50;10.85;;;;;;;14.18;23.64;95896.13;4959292;28;20258;-65
2022/03/26 10:14:58;;;;;;;13.98;11.00;;;;;;;14.33;24.15;95899.09;4957882;28;20220;-64
2022/03/26 10:17:26;;;;;;;14.60;10.88;;;;;;;14.42;23.81;95892.84;4990835;28;20239;-64
2022/03/26 10:19:55;;;;;;;12.40;9.63;;;;;;;14.53;23.26;95891.81;4967179;28;20208;-63
2022/03/26 10:22:50;;;;;;;15.88;9.85;;;;;;;14.62;23.36;95887.41;4957127;28;20268;-64
2022/03/26 10:25:25;;;;;;;12.10;8.88;;;;;;;14.59;23.19;95872.66;4960472;28;20233;-65
2022/03/26 10:27:56;;;;;;;10.35;8.82;;;;;;;14.80;22.96;95876.75;4962895;28;20223;-66
2022/03/26 10:33:30;;;;;;;13.20;9.20;;;;;;;15.17;22.46;95868.50;4960717;28;20290;-67
2022/03/26 10:36:01;;;;;;;17.30;9.30;;;;;;;14.99;22.54;95866.78;4969840;28;20287;-66
2022/03/26 10:38:35;;;;;;;15.73;9.35;;;;;;;15.13;22.64;95861.84;4960234;28;20290;-66
2022/03/26 10:41:02;;;;;;;12.52;9.32;;;;;;;15.31;21.90;95867.88;4951007;28;20304;-64
2022/03/26 10:43:29;;;;;;;13.75;8.70;;;;;;;15.38;21.71;95868.91;4954427;28;20205;-66
2022/03/26 10:45:58;;;;;;;10.82;7.82;;;;;;;15.29;21.96;95859.28;4958485;28;20231;-65
2022/03/26 10:48:32;;;;;;;9.60;8.35;;;;;;;15.35;22.11;95858.66;4961479;28;20224;-65
2022/03/26 10:51:08;;;;;;;13.60;8.75;;;;;;;15.47;21.72;95850.38;4956112;28;20232;-66
2022/03/26 10:53:36;;;;;;;10.57;8.57;;;;;;;15.63;21.49;95851.25;4960971;28;20231;-65
2022/03/26 10:56:03;;;;;;;10.13;8.02;;;;;;;15.76;21.39;95842.84;4964481;28;20204;-66
2022/03/26 10:58:31;;;;;;;13.15;8.43;;;;;;;15.83;21.28;95841.22;4957157;28;20211;-66
2022/03/26 11:00:57;;;;;;;9.70;7.55;;;;;;;15.88;21.21;95844.22;4974644;28;20252;-64
2022/03/26 11:03:23;;;;;;;10.57;7.35;;;;;;;15.88;21.14;95838.09;4959309;28;20235;-67
2022/03/26 11:05:52;;;;;;;9.98;7.57;;;;;;;15.95;21.40;95831.09;4963765;28;20228;-64
2022/03/26 11:08:19;;;;;;;11.60;7.32;;;;;;;16.40;20.84;95834.25;4958093;28;20216;-68
2022/03/26 11:10:45;;;;;;;9.48;6.55;;;;;;;16.36;20.21;95823.16;4968839;28;20197;-64
2022/03/26 11:13:12;;;;;;;9.52;6.60;;;;;;;16.35;20.48;95823.31;4960815;28;20216;-66
2022/03/26 11:15:48;;;;;;;9.27;6.60;;;;;;;16.64;20.37;95810.31;4959242;28;20602;-65
2022/03/26 11:18:32;;;;;;;8.93;6.10;;;;;;;16.81;20.03;95819.09;4956420;28;20219;-67
2022/03/26 11:21:48;;;;;;;7.45;5.78;;;;;;;16.93;20.18;95801.78;4957539;28;20234;-64
2022/03/26 11:24:51;;;;;;;5.93;5.00;;;;;;;17.16;20.43;95814.31;4964972;28;20232;-67